createdAt,value
2022-08-14T00:02:16.085Z,7.03
2022-08-14T00:04:45.420Z,7.68
2022-08-14T00:07:14.028Z,7.72
2022-08-14T00:10:02.166Z,7.87
2022-08-14T00:12:39.577Z,6.60
2022-08-14T00:15:16.257Z,5.30
2022-08-14T00:17:47.291Z,7.22
2022-08-14T00:20:30.348Z,8.13
2022-08-14T00:23:00.342Z,8.45
2022-08-14T00:25:41.845Z,8.05
2022-08-14T00:28:15.443Z,7.53
2022-08-14T00:33:16.452Z,8.27
2022-08-14T00:36:36.912Z,7.75
2022-08-14T00:38:35.166Z,8.30
2022-08-14T00:41:05.109Z,9.07
2022-08-14T00:43:34.758Z,7.55
2022-08-14T00:46:08.005Z,7.78
2022-08-14T00:48:38.427Z,7.93
2022-08-14T00:51:08.870Z,7.32
2022-08-14T00:53:37.643Z,6.20
2022-08-14T00:56:08.720Z,7.12
2022-08-14T00:58:44.900Z,8.02
2022-08-14T01:01:17.023Z,7.70
2022-08-14T01:03:45.594Z,6.90
2022-08-14T01:06:18.458Z,8.32
2022-08-14T01:08:52.138Z,7.30
2022-08-14T01:11:35.540Z,7.90
2022-08-14T01:14:25.170Z,6.70
2022-08-14T01:16:53.152Z,8.25
2022-08-14T01:19:43.335Z,8.15
2022-08-14T01:22:12.443Z,6.22
2022-08-14T01:24:43.412Z,8.15
2022-08-14T01:27:19.757Z,8.30
2022-08-14T01:30:03.149Z,8.80
2022-08-14T01:32:37.683Z,8.40
2022-08-14T01:35:19.760Z,8.32
2022-08-14T01:37:58.655Z,4.85
2022-08-14T01:40:36.998Z,5.43
2022-08-14T01:43:18.773Z,7.20
2022-08-14T01:46:06.056Z,7.35
2022-08-14T01:48:37.534Z,7.70
2022-08-14T01:51:19.094Z,7.07
2022-08-14T01:53:51.382Z,8.80
2022-08-14T01:56:39.822Z,8.35
2022-08-14T01:59:10.069Z,8.52
2022-08-14T02:01:56.832Z,8.18
2022-08-14T02:04:55.839Z,8.43
2022-08-14T02:07:34.382Z,8.25
2022-08-14T02:10:13.072Z,8.82
2022-08-14T02:12:48.815Z,8.02
2022-08-14T02:15:22.223Z,6.97
2022-08-14T02:17:50.585Z,8.23
2022-08-14T02:20:19.357Z,8.10
2022-08-14T02:22:52.070Z,5.75
2022-08-14T02:25:22.533Z,7.28
2022-08-14T02:28:24.169Z,6.75
2022-08-14T02:30:44.721Z,7.87
2022-08-14T02:33:13.389Z,7.50
2022-08-14T02:35:43.599Z,7.62
2022-08-14T02:38:29.886Z,6.30
2022-08-14T02:40:58.692Z,6.75
2022-08-14T02:43:36.678Z,7.10
2022-08-14T02:46:13.599Z,8.45
2022-08-14T02:49:01.830Z,7.35
2022-08-14T02:51:34.462Z,5.93
2022-08-14T02:54:03.584Z,8.35
2022-08-14T02:57:15.615Z,8.32
2022-08-14T02:59:21.232Z,7.43
2022-08-14T03:01:50.830Z,7.93
2022-08-14T03:04:22.705Z,6.20
2022-08-14T03:06:58.009Z,6.65
2022-08-14T03:09:42.091Z,8.57
2022-08-14T03:12:30.752Z,7.82
2022-08-14T03:15:09.116Z,8.13
2022-08-14T03:17:56.970Z,8.10
2022-08-14T03:20:28.821Z,7.22
2022-08-14T03:23:00.154Z,8.82
2022-08-14T03:25:31.429Z,8.55
2022-08-14T03:28:03.768Z,8.20
2022-08-14T03:30:39.554Z,9.02
2022-08-14T03:33:12.562Z,6.37
2022-08-14T03:36:00.330Z,8.90
2022-08-14T03:39:13.006Z,6.82
2022-08-14T03:41:23.891Z,6.37
2022-08-14T03:44:01.390Z,7.97
2022-08-14T03:46:54.938Z,8.10
2022-08-14T03:49:28.925Z,9.70
2022-08-14T03:52:00.637Z,8.30
2022-08-14T03:54:29.427Z,8.65
2022-08-14T03:57:02.830Z,8.90
2022-08-14T03:59:35.384Z,9.50
2022-08-14T04:02:04.817Z,9.15
2022-08-14T04:04:52.692Z,10.48
2022-08-14T04:07:20.219Z,7.93
2022-08-14T04:09:50.060Z,8.70
2022-08-14T04:12:26.532Z,9.02
2022-08-14T04:14:54.634Z,6.97
2022-08-14T04:17:22.680Z,8.77
2022-08-14T04:19:50.380Z,8.55
2022-08-14T04:22:21.974Z,6.87
2022-08-14T04:24:50.388Z,9.50
2022-08-14T04:27:18.514Z,7.80
2022-08-14T04:29:45.983Z,10.18
2022-08-14T04:32:59.877Z,9.18
2022-08-14T04:35:07.716Z,8.13
2022-08-14T04:37:57.036Z,7.47
2022-08-14T04:40:43.205Z,9.68
2022-08-14T04:43:38.614Z,7.00
2022-08-14T04:46:56.350Z,9.35
2022-08-14T04:49:07.852Z,7.50
2022-08-14T04:51:46.196Z,10.15
2022-08-14T04:54:17.237Z,9.05
2022-08-14T04:56:45.458Z,11.90
2022-08-14T04:59:13.090Z,11.60
2022-08-14T05:01:45.132Z,11.00
2022-08-14T05:04:19.930Z,10.48
2022-08-14T05:06:53.721Z,10.60
2022-08-14T05:09:23.886Z,11.27
2022-08-14T05:11:53.073Z,11.10
2022-08-14T05:14:45.204Z,10.60
2022-08-14T05:17:13.366Z,10.15
2022-08-14T05:19:44.825Z,10.20
2022-08-14T05:22:29.018Z,10.63
2022-08-14T05:24:56.506Z,10.50
2022-08-14T05:27:24.208Z,9.77
2022-08-14T05:29:53.626Z,10.73
2022-08-14T05:32:27.407Z,9.88
2022-08-14T05:34:58.433Z,11.20
2022-08-14T05:37:28.049Z,9.48
2022-08-14T05:39:56.531Z,9.70
2022-08-14T05:42:29.477Z,9.80
2022-08-14T05:44:59.810Z,9.50
2022-08-14T05:47:28.975Z,9.88
2022-08-14T05:50:02.317Z,9.30
2022-08-14T05:52:39.041Z,9.57
2022-08-14T05:55:09.410Z,9.02
2022-08-14T05:57:48.010Z,8.77
2022-08-14T06:00:28.973Z,9.02
2022-08-14T06:03:04.091Z,9.00
2022-08-14T06:05:35.213Z,8.85
2022-08-14T06:08:21.740Z,8.68
2022-08-14T06:11:06.132Z,8.75
2022-08-14T06:13:45.860Z,8.68
2022-08-14T06:16:18.343Z,8.30
2022-08-14T06:18:51.785Z,8.82
2022-08-14T06:21:22.624Z,8.23
2022-08-14T06:23:51.468Z,8.35
2022-08-14T06:26:20.897Z,8.52
2022-08-14T06:28:52.154Z,8.70
2022-08-14T06:31:21.224Z,7.70
2022-08-14T06:35:02.676Z,8.63
2022-08-14T06:36:39.240Z,8.70
2022-08-14T06:39:10.331Z,7.55
2022-08-14T06:41:57.535Z,7.60
2022-08-14T06:44:30.616Z,11.25
2022-08-14T06:47:05.415Z,7.30
2022-08-14T06:49:40.260Z,7.20
2022-08-14T06:52:15.394Z,6.25
2022-08-14T06:54:44.771Z,7.15
2022-08-14T06:57:12.569Z,7.12
2022-08-14T06:59:42.124Z,7.60
2022-08-14T07:02:28.862Z,6.55
2022-08-14T07:05:23.037Z,7.20
2022-08-14T07:07:51.440Z,7.35
2022-08-14T07:10:22.128Z,7.62
2022-08-14T07:13:02.422Z,7.75
2022-08-14T07:15:34.279Z,7.30
2022-08-14T07:18:09.466Z,7.15
2022-08-14T07:20:38.602Z,7.10
2022-08-14T07:23:10.995Z,8.10
2022-08-14T07:25:48.107Z,6.93
2022-08-14T07:28:21.551Z,6.60
2022-08-14T07:30:51.928Z,6.65
2022-08-14T07:33:24.713Z,7.32
2022-08-14T07:36:00.194Z,7.00
2022-08-14T07:38:35.679Z,7.28
2022-08-14T07:41:06.837Z,7.40
2022-08-14T07:43:41.217Z,7.30
2022-08-14T07:46:09.562Z,7.18
2022-08-14T07:48:41.525Z,7.43
2022-08-14T07:51:10.716Z,7.15
2022-08-14T07:53:41.143Z,7.00
2022-08-14T07:56:43.664Z,8.15
2022-08-14T07:58:59.691Z,7.12
2022-08-14T08:01:30.011Z,6.78
2022-08-14T08:04:01.439Z,6.78
2022-08-14T08:06:31.120Z,7.37
2022-08-14T08:09:02.780Z,7.57
2022-08-14T08:11:37.398Z,7.60
2022-08-14T08:16:50.991Z,7.32
2022-08-14T08:19:19.667Z,7.20
2022-08-14T08:21:47.505Z,7.37
2022-08-14T08:24:19.674Z,6.87
2022-08-14T08:26:50.776Z,7.18
2022-08-14T08:29:22.373Z,7.35
2022-08-14T08:32:01.974Z,6.60
2022-08-14T08:34:46.230Z,8.10
2022-08-14T08:37:14.826Z,6.80
2022-08-14T08:40:02.660Z,6.60
2022-08-14T08:42:38.856Z,7.15
2022-08-14T08:45:12.238Z,6.87
2022-08-14T08:47:41.013Z,6.62
2022-08-14T08:50:31.314Z,6.68
2022-08-14T08:53:02.163Z,6.90
2022-08-14T08:55:32.682Z,7.05
2022-08-14T08:58:05.433Z,7.40
2022-08-14T09:00:42.973Z,7.22
2022-08-14T09:03:15.673Z,6.45
2022-08-14T09:05:56.159Z,7.35
2022-08-14T09:08:31.317Z,7.50
2022-08-14T09:11:18.535Z,7.70
2022-08-14T09:13:53.208Z,7.30
2022-08-14T09:16:23.727Z,7.12
2022-08-14T09:18:53.966Z,6.93
2022-08-14T09:21:24.108Z,7.68
2022-08-14T09:24:28.892Z,7.28
2022-08-14T09:26:49.205Z,7.80
2022-08-14T09:29:20.029Z,7.57
2022-08-14T09:31:57.013Z,7.68
2022-08-14T09:37:49.224Z,6.93
2022-08-14T09:40:48.897Z,7.05
2022-08-14T09:43:31.085Z,7.30
2022-08-14T09:46:02.542Z,5.90
2022-08-14T09:48:31.381Z,7.05
2022-08-14T09:54:18.470Z,6.05
2022-08-14T09:56:44.381Z,5.93
2022-08-14T09:59:16.137Z,5.93
2022-08-14T10:01:46.121Z,6.07
2022-08-14T10:04:36.723Z,5.20
2022-08-14T10:07:10.083Z,5.78
2022-08-14T10:09:59.658Z,4.72
2022-08-14T10:12:48.590Z,4.50
2022-08-14T10:15:23.147Z,4.28
2022-08-14T10:18:04.047Z,5.12
2022-08-14T10:20:40.281Z,5.00
2022-08-14T10:23:16.504Z,5.15
2022-08-14T10:25:53.010Z,5.10
2022-08-14T10:28:51.524Z,4.85
2022-08-14T10:31:44.744Z,5.22
2022-08-14T10:34:19.028Z,5.47
2022-08-14T10:37:02.145Z,6.15
2022-08-14T10:39:30.327Z,5.10
2022-08-14T10:42:22.037Z,5.10
2022-08-14T10:44:52.460Z,5.37
2022-08-14T10:47:41.210Z,5.18
2022-08-14T10:50:12.074Z,4.78
2022-08-14T10:52:43.316Z,5.37
2022-08-14T10:55:14.689Z,5.18
2022-08-14T10:57:52.522Z,5.07
2022-08-14T11:00:30.318Z,4.78
2022-08-14T11:03:15.698Z,4.80
2022-08-14T11:05:52.157Z,4.37
2022-08-14T11:08:32.082Z,4.78
2022-08-14T11:11:02.116Z,4.28
2022-08-14T11:13:31.881Z,4.53
2022-08-14T11:16:01.637Z,4.70
2022-08-14T11:18:35.891Z,4.72
2022-08-14T11:21:09.472Z,3.97
2022-08-14T11:23:43.845Z,4.15
2022-08-14T11:26:14.194Z,4.47
2022-08-14T11:28:49.925Z,4.75
2022-08-14T11:31:22.216Z,5.07
2022-08-14T11:33:53.112Z,4.95
2022-08-14T11:36:23.848Z,4.70
2022-08-14T11:39:03.103Z,4.82
2022-08-14T11:41:41.424Z,4.93
2022-08-14T11:44:17.816Z,5.40
2022-08-14T11:47:05.903Z,4.72
2022-08-14T11:49:35.181Z,5.28
2022-08-14T11:52:02.735Z,5.30
2022-08-14T11:54:34.350Z,5.18
2022-08-14T11:57:04.418Z,4.45
2022-08-14T11:59:33.969Z,4.60
2022-08-14T12:03:00.600Z,4.95
2022-08-14T12:05:04.932Z,4.82
2022-08-14T12:07:36.962Z,5.47
2022-08-14T12:10:25.392Z,5.07
2022-08-14T12:12:56.500Z,5.05
2022-08-14T12:15:36.082Z,4.60
2022-08-14T12:18:06.517Z,4.90
2022-08-14T12:20:45.624Z,4.40
2022-08-14T12:23:25.621Z,4.18
2022-08-14T12:26:32.157Z,3.85
2022-08-14T12:29:08.707Z,4.62
2022-08-14T12:31:46.630Z,5.15
2022-08-14T12:34:20.673Z,5.15
2022-08-14T12:37:03.287Z,4.12
2022-08-14T12:39:30.865Z,4.75
2022-08-14T12:42:08.597Z,4.87
2022-08-14T12:44:43.972Z,5.05
2022-08-14T12:47:16.785Z,5.03
2022-08-14T12:49:57.844Z,5.20
2022-08-14T12:53:01.910Z,5.55
2022-08-14T12:56:18.368Z,4.97
2022-08-14T12:58:28.776Z,4.32
2022-08-14T13:01:16.176Z,4.97
2022-08-14T13:03:45.838Z,4.87
2022-08-14T13:06:14.645Z,4.97
2022-08-14T13:08:53.057Z,5.10
2022-08-14T13:11:23.774Z,4.85
2022-08-14T13:13:53.937Z,5.18
2022-08-14T13:16:33.608Z,4.68
2022-08-14T13:19:10.992Z,5.03
2022-08-14T13:21:58.992Z,5.20
2022-08-14T13:24:28.050Z,4.55
2022-08-14T13:26:58.461Z,4.93
2022-08-14T13:29:29.679Z,4.95
2022-08-14T13:31:59.500Z,5.20
2022-08-14T13:34:29.126Z,6.03
2022-08-14T13:37:03.661Z,4.78
2022-08-14T13:39:36.204Z,4.45
2022-08-14T13:42:13.507Z,4.53
2022-08-14T13:44:42.868Z,5.30
2022-08-14T13:47:14.699Z,5.30
2022-08-14T13:49:57.395Z,4.65
2022-08-14T13:52:51.988Z,5.15
2022-08-14T13:55:15.821Z,4.55
2022-08-14T13:57:49.752Z,5.18
2022-08-14T14:00:36.099Z,4.90
2022-08-14T14:03:24.160Z,4.93
2022-08-14T14:05:54.514Z,5.43
2022-08-14T14:08:46.906Z,5.00
2022-08-14T14:11:15.870Z,4.93
2022-08-14T14:13:45.965Z,5.25
2022-08-14T14:16:26.090Z,5.05
2022-08-14T14:19:08.851Z,5.20
2022-08-14T14:21:37.543Z,4.95
2022-08-14T14:24:06.238Z,5.03
2022-08-14T14:26:36.140Z,5.00
2022-08-14T14:29:06.407Z,4.72
2022-08-14T14:31:36.646Z,4.90
2022-08-14T14:34:19.930Z,4.72
2022-08-14T14:37:02.894Z,4.40
2022-08-14T14:39:37.673Z,3.80
2022-08-14T14:42:31.785Z,4.75
2022-08-14T14:45:07.651Z,4.12
2022-08-14T14:47:36.827Z,4.10
2022-08-14T14:50:04.698Z,4.45
2022-08-14T14:52:37.066Z,4.22
2022-08-14T14:55:07.081Z,4.55
2022-08-14T14:57:36.277Z,4.22
2022-08-14T15:00:12.566Z,3.90
2022-08-14T15:02:49.743Z,4.03
2022-08-14T15:05:20.240Z,4.15
2022-08-14T15:07:50.073Z,3.40
2022-08-14T15:10:27.739Z,3.42
2022-08-14T15:13:03.843Z,3.37
2022-08-14T15:15:36.964Z,3.40
2022-08-14T15:18:14.939Z,3.42
2022-08-14T15:20:57.543Z,4.10
2022-08-14T15:23:32.451Z,3.65
2022-08-14T15:26:23.916Z,3.78
2022-08-14T15:29:06.171Z,3.50
2022-08-14T15:31:37.013Z,3.58
2022-08-14T15:34:43.402Z,3.35
2022-08-14T15:36:59.593Z,3.50
2022-08-14T15:39:29.272Z,3.40
2022-08-14T15:42:02.654Z,3.47
2022-08-14T15:44:36.479Z,3.60
2022-08-14T15:47:07.071Z,3.62
2022-08-14T15:49:35.777Z,3.62
2022-08-14T15:52:08.157Z,3.50
2022-08-14T15:54:38.696Z,3.80
2022-08-14T15:57:09.368Z,3.28
2022-08-14T15:59:56.794Z,3.12
2022-08-14T16:02:27.798Z,3.45
2022-08-14T16:04:56.365Z,3.35
2022-08-14T16:07:25.312Z,3.35
2022-08-14T16:10:25.308Z,3.53
2022-08-14T16:12:47.430Z,3.20
2022-08-14T16:15:16.886Z,3.30
2022-08-14T16:17:45.941Z,3.85
2022-08-14T16:20:41.062Z,3.17
2022-08-14T16:23:10.369Z,2.95
2022-08-14T16:25:41.973Z,3.85
2022-08-14T16:28:27.086Z,2.97
2022-08-14T16:30:56.105Z,3.72
2022-08-14T16:33:28.024Z,4.97
2022-08-14T16:36:30.809Z,4.32
2022-08-14T16:39:01.933Z,4.55
2022-08-14T16:41:29.846Z,5.10
2022-08-14T16:43:59.409Z,4.82
2022-08-14T16:46:31.539Z,4.97
2022-08-14T16:49:02.047Z,5.32
2022-08-14T16:51:31.117Z,5.12
2022-08-14T16:54:20.549Z,4.78
2022-08-14T16:56:54.200Z,5.57
2022-08-14T16:59:30.605Z,4.40
2022-08-14T17:02:12.322Z,5.57
2022-08-14T17:04:41.249Z,4.43
2022-08-14T17:07:13.829Z,5.35
2022-08-14T17:09:48.535Z,5.22
2022-08-14T17:12:33.582Z,4.62
2022-08-14T17:15:10.586Z,5.03
2022-08-14T17:17:38.507Z,4.68
2022-08-14T17:21:01.884Z,4.90
2022-08-14T17:22:59.742Z,5.65
2022-08-14T17:25:31.084Z,5.40
2022-08-14T17:28:51.716Z,5.40
2022-08-14T17:31:04.486Z,5.07
2022-08-14T17:33:40.525Z,5.45
2022-08-14T17:36:20.059Z,5.47
2022-08-14T17:39:17.356Z,5.20
2022-08-14T17:42:01.732Z,5.12
2022-08-14T17:44:45.025Z,4.93
2022-08-14T17:47:17.997Z,4.87
2022-08-14T17:49:51.961Z,5.85
2022-08-14T17:52:34.938Z,5.32
2022-08-14T17:56:00.873Z,5.62
2022-08-14T17:58:20.633Z,6.05
2022-08-14T18:00:51.525Z,5.62
2022-08-14T18:03:50.292Z,5.78
2022-08-14T18:06:40.109Z,5.30
2022-08-14T18:08:58.660Z,5.32
2022-08-14T18:11:27.042Z,5.65
2022-08-14T18:14:31.407Z,5.30
2022-08-14T18:17:01.484Z,5.72
2022-08-14T18:19:34.575Z,4.97
2022-08-14T18:22:23.633Z,5.18
2022-08-14T18:24:53.642Z,5.78
2022-08-14T18:27:23.428Z,5.80
2022-08-14T18:29:56.466Z,5.28
2022-08-14T18:32:31.735Z,5.28
2022-08-14T18:35:11.403Z,5.90
2022-08-14T18:37:55.757Z,5.30
2022-08-14T18:40:34.522Z,5.65
2022-08-14T18:43:03.686Z,5.32
2022-08-14T18:45:33.458Z,5.95
2022-08-14T18:48:19.935Z,5.68
2022-08-14T18:50:52.697Z,5.32
2022-08-14T18:53:24.730Z,5.90
2022-08-14T18:56:10.032Z,5.37
2022-08-14T18:58:56.841Z,5.32
2022-08-14T19:01:29.761Z,5.75
2022-08-14T19:03:59.866Z,5.40
2022-08-14T19:06:40.201Z,5.70
2022-08-14T19:09:50.461Z,5.53
2022-08-14T19:12:53.851Z,5.97
2022-08-14T19:15:31.459Z,6.12
2022-08-14T19:18:14.061Z,5.68
2022-08-14T19:20:52.795Z,5.47
2022-08-14T19:23:42.256Z,5.60
2022-08-14T19:26:36.673Z,5.65
2022-08-14T19:29:37.800Z,5.85
2022-08-14T19:32:42.725Z,5.72
2022-08-14T19:35:49.334Z,5.90
2022-08-14T19:38:53.532Z,5.82
2022-08-14T19:41:29.661Z,5.53
2022-08-14T19:44:12.133Z,5.97
2022-08-14T19:47:01.953Z,5.43
2022-08-14T19:50:07.997Z,5.82
2022-08-14T19:52:27.552Z,5.97
2022-08-14T19:54:58.840Z,5.85
2022-08-14T19:57:29.520Z,5.45
2022-08-14T20:00:28.143Z,5.80
2022-08-14T20:03:10.997Z,6.05
2022-08-14T20:05:43.138Z,5.50
2022-08-14T20:11:01.258Z,5.22
2022-08-14T20:11:19.070Z,6.20
2022-08-14T20:14:20.684Z,5.93
2022-08-14T20:17:03.200Z,6.37
2022-08-14T20:19:37.861Z,6.35
2022-08-14T20:22:37.061Z,5.93
2022-08-14T20:25:15.392Z,6.05
2022-08-14T20:27:44.750Z,6.30
2022-08-14T20:30:35.074Z,5.75
2022-08-14T20:33:10.952Z,6.20
2022-08-14T20:35:39.358Z,5.72
2022-08-14T20:38:33.385Z,5.78
2022-08-14T20:41:05.690Z,5.97
2022-08-14T20:43:55.218Z,5.85
2022-08-14T20:46:29.389Z,5.97
2022-08-14T20:51:36.975Z,5.40
2022-08-14T20:54:07.451Z,5.40
2022-08-14T20:56:41.349Z,5.95
2022-08-14T20:59:18.040Z,6.03
2022-08-14T21:01:55.621Z,5.82
2022-08-14T21:04:35.873Z,5.78
2022-08-14T21:07:25.215Z,5.55
2022-08-14T21:10:35.754Z,5.97
2022-08-14T21:14:08.894Z,5.47
2022-08-14T21:16:03.746Z,6.43
2022-08-14T21:18:34.386Z,6.25
2022-08-14T21:21:07.955Z,6.00
2022-08-14T21:23:55.213Z,6.32
2022-08-14T21:26:52.048Z,6.57
2022-08-14T21:29:20.913Z,5.37
2022-08-14T21:31:55.570Z,6.45
2022-08-14T21:34:31.476Z,6.60
2022-08-14T21:37:07.775Z,6.22
2022-08-14T21:39:38.244Z,6.15
2022-08-14T21:42:06.309Z,6.72
2022-08-14T21:44:36.165Z,5.93
2022-08-14T21:47:16.646Z,5.43
2022-08-14T21:49:46.333Z,6.47
2022-08-14T21:52:52.011Z,5.97
2022-08-14T21:55:12.283Z,5.93
2022-08-14T21:58:51.359Z,7.15
2022-08-14T22:00:39.716Z,7.47
2022-08-14T22:03:17.043Z,7.45
2022-08-14T22:05:47.004Z,6.78
2022-08-14T22:08:16.173Z,5.85
2022-08-14T22:10:46.602Z,6.70
2022-08-14T22:13:17.440Z,6.12
2022-08-14T22:15:49.760Z,6.68
2022-08-14T22:18:20.389Z,6.37
2022-08-14T22:20:53.828Z,6.90
2022-08-14T22:23:24.982Z,6.30
2022-08-14T22:25:55.161Z,5.95
2022-08-14T22:28:32.391Z,5.43
2022-08-14T22:31:10.372Z,7.10
2022-08-14T22:33:39.595Z,6.28
2022-08-14T22:36:33.634Z,5.93
2022-08-14T22:39:02.491Z,6.62
2022-08-14T22:41:42.225Z,5.53
2022-08-14T22:44:13.621Z,5.65
2022-08-14T22:46:43.262Z,7.18
2022-08-14T22:49:15.542Z,6.05
2022-08-14T22:52:00.759Z,6.60
2022-08-14T22:54:51.262Z,6.20
2022-08-14T22:57:18.292Z,6.50
2022-08-14T22:59:46.314Z,6.90
2022-08-14T23:02:30.015Z,6.50
2022-08-14T23:04:59.384Z,6.32
2022-08-14T23:08:58.574Z,6.00
2022-08-14T23:10:33.099Z,5.80
2022-08-14T23:13:04.084Z,6.03
2022-08-14T23:15:34.096Z,5.68
2022-08-14T23:18:03.230Z,5.75
2022-08-14T23:20:33.721Z,6.87
2022-08-14T23:23:13.798Z,6.35
2022-08-14T23:25:59.840Z,6.00
2022-08-14T23:28:33.460Z,6.35
2022-08-14T23:31:15.770Z,5.97
2022-08-14T23:34:11.028Z,5.82
2022-08-14T23:36:54.192Z,6.25
2022-08-14T23:39:32.638Z,5.30
2022-08-14T23:42:07.622Z,5.78
2022-08-14T23:44:38.111Z,5.78
2022-08-14T23:47:11.722Z,6.47
2022-08-14T23:50:03.443Z,6.45
2022-08-14T23:52:51.665Z,5.47
2022-08-14T23:55:29.982Z,6.15
2022-08-14T23:57:59.274Z,5.72
